Time;durP1;ratioP1;P1;durP2;ratioP2;P2;SDS_P1;SDS_P2;PMS_P1;PMS_P2;Temp;Humidity;BMP_temperature;BMP_pressure;BME280_temperature;BME280_humidity;BME280_pressure;Samples;Min_cycle;Max_cycle;Signal;HPM_P1;HPM_P2
2021/06/11 00:00:27;;;;;;;15.10;13.70;;;;;;;12.91;100.00;98342.84;5129493;27;20450;-69
2021/06/11 00:02:59;;;;;;;14.90;13.33;;;;;;;12.91;100.00;98341.00;5133500;27;20213;-71
2021/06/11 00:05:26;;;;;;;25.57;17.53;;;;;;;12.85;100.00;98344.34;5133154;27;20225;-69
2021/06/11 00:07:54;;;;;;;19.73;15.13;;;;;;;12.85;100.00;98347.81;5125145;27;20205;-69
2021/06/11 00:10:22;;;;;;;18.13;16.23;;;;;;;12.93;100.00;98344.31;5125753;27;20220;-70
2021/06/11 00:12:51;;;;;;;15.30;13.73;;;;;;;12.92;100.00;98340.00;5119509;27;20204;-73
2021/06/11 00:15:19;;;;;;;16.67;14.90;;;;;;;13.06;100.00;98348.25;5124739;27;20565;-71
2021/06/11 00:17:46;;;;;;;14.90;13.60;;;;;;;12.97;100.00;98339.50;5129167;27;20580;-72
2021/06/11 00:20:13;;;;;;;13.20;12.20;;;;;;;12.86;100.00;98343.34;5124093;27;20569;-70
2021/06/11 00:22:41;;;;;;;13.10;12.13;;;;;;;12.96;100.00;98345.81;5123574;27;20590;-68
2021/06/11 00:25:11;;;;;;;13.77;12.67;;;;;;;12.85;100.00;98342.50;5124219;27;20208;-71
2021/06/11 00:27:39;;;;;;;13.33;12.17;;;;;;;12.82;100.00;98337.53;5125203;27;20227;-70
2021/06/11 00:30:09;;;;;;;12.93;12.03;;;;;;;12.79;100.00;98340.53;5120842;27;20220;-70
2021/06/11 00:32:37;;;;;;;12.70;11.70;;;;;;;12.76;100.00;98346.19;5123752;27;20593;-69
2021/06/11 00:35:06;;;;;;;11.63;10.53;;;;;;;12.72;100.00;98340.41;5120606;27;20204;-69
2021/06/11 00:37:33;;;;;;;11.47;10.57;;;;;;;12.78;100.00;98341.53;5128171;27;20200;-72
2021/06/11 00:40:01;;;;;;;17.67;11.97;;;;;;;12.67;100.00;98333.91;5121001;27;20290;-70
2021/06/11 00:42:28;;;;;;;12.93;11.90;;;;;;;12.71;100.00;98340.56;5120485;27;20228;-69
2021/06/11 00:44:56;;;;;;;14.40;12.73;;;;;;;12.79;100.00;98337.88;5122942;27;20212;-72
2021/06/11 00:47:25;;;;;;;41.77;13.90;;;;;;;12.68;100.00;98335.56;5129085;27;20201;-69
2021/06/11 00:49:53;;;;;;;11.27;10.17;;;;;;;12.67;100.00;98336.56;5123301;27;20205;-71
2021/06/11 00:52:21;;;;;;;32.60;12.80;;;;;;;12.79;100.00;98337.06;5120690;27;20200;-70
2021/06/11 00:54:48;;;;;;;47.80;16.47;;;;;;;12.83;100.00;98339.19;5120031;27;20574;-70
2021/06/11 00:57:16;;;;;;;57.50;15.77;;;;;;;12.82;100.00;98339.38;5125052;27;20224;-71
2021/06/11 00:59:43;;;;;;;64.83;16.47;;;;;;;12.87;100.00;98347.66;5121795;27;20692;-70
2021/06/11 01:02:11;;;;;;;16.87;12.03;;;;;;;12.88;100.00;98346.66;5124118;27;20201;-72
2021/06/11 01:04:40;;;;;;;33.93;13.37;;;;;;;12.79;100.00;98353.81;5116739;27;20206;-70
2021/06/11 01:07:08;;;;;;;16.17;12.50;;;;;;;12.97;100.00;98347.47;5126092;27;20247;-71
2021/06/11 01:09:37;;;;;;;13.83;12.13;;;;;;;12.96;100.00;98351.13;5121415;27;20463;-71
2021/06/11 01:12:05;;;;;;;13.67;12.67;;;;;;;12.86;100.00;98346.81;5117587;27;20205;-70
2021/06/11 01:14:33;;;;;;;14.90;13.03;;;;;;;12.91;100.00;98346.31;5121318;27;20232;-71
2021/06/11 01:17:01;;;;;;;13.63;12.37;;;;;;;13.03;100.00;98344.13;5127051;27;20749;-70
2021/06/11 01:19:32;;;;;;;13.33;12.07;;;;;;;13.10;100.00;98344.28;5120425;27;20631;-69
2021/06/11 01:22:06;;;;;;;18.50;13.30;;;;;;;13.16;100.00;98333.75;5121773;27;20561;-70
2021/06/11 01:24:34;;;;;;;14.67;13.00;;;;;;;13.08;100.00;98341.78;5125205;27;20212;-68
2021/06/11 01:27:03;;;;;;;24.30;13.20;;;;;;;13.13;100.00;98335.97;5121469;27;20228;-72
2021/06/11 01:29:32;;;;;;;24.07;11.80;;;;;;;13.11;100.00;98336.13;5123128;27;20208;-68
2021/06/11 01:32:02;;;;;;;15.57;11.23;;;;;;;13.07;100.00;98349.91;5128154;27;20692;-71
2021/06/11 01:34:31;;;;;;;26.23;10.73;;;;;;;13.05;100.00;98335.97;5124490;27;20204;-72
2021/06/11 01:37:01;;;;;;;28.97;11.60;;;;;;;13.01;100.00;98343.47;5123846;27;20279;-70
2021/06/11 01:39:29;;;;;;;12.17;10.33;;;;;;;13.08;100.00;98328.47;5123629;27;20209;-70
2021/06/11 01:41:58;;;;;;;14.90;11.27;;;;;;;13.06;100.00;98340.28;5126317;27;20201;-70
2021/06/11 01:44:27;;;;;;;23.63;12.27;;;;;;;13.01;100.00;98330.97;5123346;27;20236;-71
2021/06/11 01:46:57;;;;;;;17.37;11.50;;;;;;;13.09;100.00;98327.47;5124249;27;20228;-68
2021/06/11 01:49:25;;;;;;;18.43;11.53;;;;;;;13.05;100.00;98335.97;5123079;27;20572;-70
2021/06/11 01:51:54;;;;;;;13.70;11.53;;;;;;;13.03;100.00;98333.50;5120782;27;20208;-74
2021/06/11 01:54:22;;;;;;;15.10;12.43;;;;;;;13.18;100.00;98330.94;5118431;27;20205;-70
2021/06/11 01:56:51;;;;;;;14.40;12.93;;;;;;;13.23;100.00;98333.06;5115328;27;20232;-69
2021/06/11 01:59:18;;;;;;;12.57;11.43;;;;;;;13.14;100.00;98321.66;5113506;27;20420;-74
2021/06/11 02:01:48;;;;;;;12.50;11.43;;;;;;;13.24;100.00;98329.41;5118927;27;20200;-68
2021/06/11 02:04:16;;;;;;;17.40;12.40;;;;;;;13.15;100.00;98324.13;5118938;27;20648;-70
2021/06/11 02:06:43;;;;;;;14.17;12.00;;;;;;;13.23;100.00;98322.41;5114718;27;20670;-70
2021/06/11 02:09:12;;;;;;;12.97;11.50;;;;;;;13.14;100.00;98321.66;5118951;27;20675;-70
2021/06/11 02:11:41;;;;;;;14.13;12.63;;;;;;;13.23;100.00;98327.75;5114505;27;20207;-70
2021/06/11 02:14:11;;;;;;;17.00;14.43;;;;;;;13.25;100.00;98326.59;5119601;27;20204;-69
2021/06/11 02:16:39;;;;;;;13.10;11.90;;;;;;;13.21;100.00;98330.59;5115942;27;20232;-69
2021/06/11 02:19:08;;;;;;;12.53;11.53;;;;;;;13.30;100.00;98336.72;5118429;27;20205;-72
2021/06/11 02:21:36;;;;;;;18.67;13.50;;;;;;;13.17;100.00;98337.25;5119276;27;20961;-71
2021/06/11 02:24:04;;;;;;;15.47;13.50;;;;;;;13.21;100.00;98335.06;5122150;27;20224;-71
2021/06/11 02:26:32;;;;;;;23.13;14.93;;;;;;;13.22;100.00;98337.56;5120508;27;20228;-70
2021/06/11 02:29:00;;;;;;;15.10;13.60;;;;;;;13.35;100.00;98337.03;5122004;27;20196;-70
2021/06/11 02:31:28;;;;;;;18.70;13.97;;;;;;;13.28;100.00;98336.06;5122092;27;21112;-71
2021/06/11 02:33:55;;;;;;;16.00;14.17;;;;;;;13.18;100.00;98336.25;5120706;27;20258;-70
2021/06/11 02:36:24;;;;;;;18.87;14.80;;;;;;;13.30;100.00;98337.53;5120430;27;20221;-69
2021/06/11 02:38:51;;;;;;;30.63;16.17;;;;;;;13.21;100.00;98340.41;5122609;27;20215;-70
2021/06/11 02:41:21;;;;;;;49.40;17.37;;;;;;;13.26;100.00;98338.88;5121793;27;20201;-70
2021/06/11 02:43:50;;;;;;;17.90;15.67;;;;;;;13.30;100.00;98339.38;5119970;27;20220;-69
2021/06/11 02:46:22;;;;;;;16.00;14.33;;;;;;;13.24;100.00;98340.06;5124252;27;20224;-71
2021/06/11 02:48:53;;;;;;;25.83;15.63;;;;;;;13.15;100.00;98334.75;5112197;27;20260;-70
2021/06/11 02:51:27;;;;;;;19.30;15.57;;;;;;;13.11;100.00;98333.44;5096196;28;20201;-70
2021/06/11 02:53:56;;;;;;;26.87;16.20;;;;;;;13.14;100.00;98345.59;5095268;28;20869;-71
2021/06/11 02:56:40;;;;;;;32.63;16.33;;;;;;;13.07;100.00;98340.13;5099529;28;20221;-71
2021/06/11 02:59:11;;;;;;;25.40;15.03;;;;;;;13.09;100.00;98338.13;5101279;28;20209;-70
2021/06/11 03:01:42;;;;;;;34.97;16.70;;;;;;;13.07;100.00;98352.56;5098154;28;20209;-70
2021/06/11 03:04:11;;;;;;;19.20;14.70;;;;;;;13.23;100.00;98343.72;5099161;28;20802;-73
2021/06/11 03:06:43;;;;;;;14.47;13.17;;;;;;;13.23;100.00;98338.38;5099384;28;20695;-70
2021/06/11 03:09:10;;;;;;;16.70;13.23;;;;;;;13.23;100.00;98338.38;5096770;28;20717;-73
2021/06/11 03:11:40;;;;;;;19.13;13.37;;;;;;;13.27;100.00;98340.53;5099941;28;20202;-72
2021/06/11 03:14:09;;;;;;;19.03;12.83;;;;;;;13.25;100.00;98341.72;5095574;28;20310;-70
2021/06/11 03:16:39;;;;;;;18.97;12.90;;;;;;;13.25;100.00;98339.88;5097503;28;20251;-72
2021/06/11 03:19:09;;;;;;;23.27;12.77;;;;;;;13.34;100.00;98342.50;5099785;28;20496;-70
2021/06/11 03:21:40;;;;;;;40.20;14.90;;;;;;;13.14;100.00;98342.94;5100521;28;20201;-72
2021/06/11 03:24:10;;;;;;;33.13;14.63;;;;;;;12.96;100.00;98346.63;5095955;28;20225;-71
2021/06/11 03:26:41;;;;;;;32.40;15.80;;;;;;;12.94;100.00;98345.16;5101281;28;20225;-71
2021/06/11 03:29:10;;;;;;;17.83;14.57;;;;;;;12.97;100.00;98344.81;5096726;28;20498;-73
2021/06/11 03:31:41;;;;;;;27.57;16.53;;;;;;;13.02;100.00;98342.47;5100947;28;20221;-74
2021/06/11 03:34:13;;;;;;;24.00;15.77;;;;;;;13.07;100.00;98345.44;5099178;28;20614;-73
2021/06/11 03:36:43;;;;;;;23.60;15.20;;;;;;;13.10;100.00;98345.09;5100281;28;20228;-78
2021/06/11 03:39:16;;;;;;;18.30;13.60;;;;;;;13.17;100.00;98337.25;5098714;28;20196;-75
2021/06/11 03:41:44;;;;;;;15.37;12.70;;;;;;;13.17;100.00;98334.59;5096041;28;20198;-74
2021/06/11 03:44:13;;;;;;;26.30;13.93;;;;;;;13.18;100.00;98338.94;5099248;28;20792;-76
2021/06/11 03:46:42;;;;;;;20.13;14.00;;;;;;;13.10;100.00;98344.28;5097488;28;20541;-74
2021/06/11 03:49:10;;;;;;;38.73;14.27;;;;;;;13.25;100.00;98336.38;5098747;28;20704;-73
2021/06/11 03:51:39;;;;;;;19.40;13.20;;;;;;;13.14;100.00;98349.06;5102143;28;20201;-76
2021/06/11 03:54:08;;;;;;;25.63;15.07;;;;;;;13.11;100.00;98338.78;5100321;28;20194;-75
2021/06/11 03:56:37;;;;;;;21.30;13.80;;;;;;;13.20;100.00;98344.06;5104572;28;20327;-76
2021/06/11 03:59:08;;;;;;;21.70;14.97;;;;;;;13.15;100.00;98352.56;5104407;28;20643;-76
2021/06/11 04:01:39;;;;;;;18.60;15.33;;;;;;;13.28;100.00;98342.19;5104648;28;20205;-73
2021/06/11 04:04:07;;;;;;;23.90;13.57;;;;;;;13.27;100.00;98345.88;5103723;27;20326;-75
2021/06/11 04:06:37;;;;;;;44.90;15.43;;;;;;;13.16;100.00;98338.28;5109527;27;20240;-75
2021/06/11 04:09:10;;;;;;;32.83;16.10;;;;;;;13.22;100.00;98348.22;5106554;27;20492;-72
2021/06/11 04:11:43;;;;;;;29.50;15.53;;;;;;;13.30;100.00;98350.03;5099078;28;20202;-78
2021/06/11 04:14:14;;;;;;;30.50;15.67;;;;;;;13.20;100.00;98362.69;5102569;28;20666;-75
2021/06/11 04:16:45;;;;;;;42.60;16.27;;;;;;;13.16;100.00;98354.22;5103379;27;20228;-74
2021/06/11 04:19:18;;;;;;;48.87;18.80;;;;;;;13.01;100.00;98354.94;5107230;28;20410;-76
2021/06/11 04:21:48;;;;;;;30.57;15.97;;;;;;;13.03;100.00;98360.91;5106057;27;20208;-75
2021/06/11 04:24:19;;;;;;;42.20;15.90;;;;;;;13.08;100.00;98357.75;5109333;27;20206;-76
2021/06/11 04:26:47;;;;;;;29.37;14.57;;;;;;;12.99;100.00;98359.59;5104714;27;20221;-78
2021/06/11 04:29:16;;;;;;;46.33;15.37;;;;;;;13.01;100.00;98357.59;5111537;27;20206;-75
2021/06/11 04:31:44;;;;;;;13.90;12.60;;;;;;;13.10;100.00;98355.75;5108885;27;20216;-79
2021/06/11 04:34:15;;;;;;;39.43;15.10;;;;;;;13.23;100.00;98365.84;5108800;27;20197;-73
2021/06/11 04:36:43;;;;;;;39.13;14.37;;;;;;;13.37;100.00;98360.78;5101891;28;20609;-74
2021/06/11 04:39:12;;;;;;;29.37;14.13;;;;;;;13.48;100.00;98364.94;5103313;27;20518;-75
2021/06/11 04:41:41;;;;;;;31.67;14.20;;;;;;;13.39;100.00;98370.28;5105951;27;21631;-73
2021/06/11 04:44:09;;;;;;;20.97;13.73;;;;;;;13.40;100.00;98373.75;5102825;28;20228;-79
2021/06/11 04:46:37;;;;;;;16.27;14.87;;;;;;;13.30;100.00;98372.13;5099019;28;20217;-77
2021/06/11 04:49:05;;;;;;;22.97;14.20;;;;;;;13.59;100.00;98369.88;5096189;28;20321;-79
2021/06/11 04:51:33;;;;;;;15.40;13.80;;;;;;;13.46;100.00;98370.47;5099481;28;20210;-79
2021/06/11 04:54:00;;;;;;;36.10;15.67;;;;;;;13.60;100.00;98367.03;5102725;27;20201;-73
2021/06/11 04:56:28;;;;;;;29.00;14.50;;;;;;;13.79;100.00;98369.44;5101192;27;20402;-81
2021/06/11 04:58:58;;;;;;;16.00;13.37;;;;;;;13.69;100.00;98372.31;5102900;28;20205;-77
2021/06/11 05:01:26;;;;;;;18.87;14.23;;;;;;;13.60;100.00;98376.84;5102334;28;20210;-76
2021/06/11 05:03:53;;;;;;;14.80;13.43;;;;;;;13.58;100.00;98373.53;5096260;28;20249;-75
2021/06/11 05:06:21;;;;;;;19.57;13.67;;;;;;;13.87;100.00;98380.06;5101161;28;20253;-77
2021/06/11 05:08:48;;;;;;;21.07;13.53;;;;;;;13.89;100.00;98372.72;5102065;28;20568;-78
2021/06/11 05:11:16;;;;;;;25.77;13.77;;;;;;;14.01;100.00;98378.47;5098074;28;20213;-78
2021/06/11 05:13:43;;;;;;;19.03;13.33;;;;;;;13.94;100.00;98378.34;5099672;28;20233;-78
2021/06/11 05:16:12;;;;;;;14.67;13.03;;;;;;;14.15;100.00;98371.53;5106588;27;20605;-75
2021/06/11 05:18:40;;;;;;;17.27;13.03;;;;;;;14.19;100.00;98381.66;5098671;28;20291;-79
2021/06/11 05:21:07;;;;;;;29.10;12.97;;;;;;;14.14;100.00;98383.22;5106466;27;20206;-79
2021/06/11 05:23:35;;;;;;;26.80;14.50;;;;;;;14.18;100.00;98379.19;5102237;28;20214;-79
2021/06/11 05:26:03;;;;;;;17.27;13.50;;;;;;;13.80;100.00;98384.44;5103709;27;20566;-77
2021/06/11 05:28:30;;;;;;;13.83;12.73;;;;;;;14.00;100.00;98382.94;5101182;27;20213;-80
2021/06/11 05:30:57;;;;;;;19.87;14.30;;;;;;;14.28;100.00;98378.94;5101820;28;20212;-75
2021/06/11 05:33:26;;;;;;;22.07;13.23;;;;;;;14.39;100.00;98378.53;5098904;28;20221;-76
2021/06/11 05:35:54;;;;;;;19.33;13.87;;;;;;;14.32;100.00;98374.91;5106348;27;20221;-81
2021/06/11 05:38:21;;;;;;;19.23;13.63;;;;;;;14.13;100.00;98376.22;5102440;27;20220;-75
2021/06/11 05:40:49;;;;;;;16.37;14.67;;;;;;;14.05;100.00;98379.78;5102554;28;20205;-79
2021/06/11 05:43:16;;;;;;;27.17;15.10;;;;;;;14.46;100.00;98379.47;5102598;28;20198;-77
2021/06/11 05:45:44;;;;;;;25.13;16.00;;;;;;;14.36;100.00;98386.88;5101306;28;20236;-79
2021/06/11 05:48:11;;;;;;;17.37;14.13;;;;;;;14.53;100.00;98384.06;5103202;27;20198;-79
2021/06/11 05:50:40;;;;;;;20.10;14.57;;;;;;;14.45;100.00;98387.66;5100957;28;20201;-75
2021/06/11 05:53:08;;;;;;;14.73;13.53;;;;;;;14.43;100.00;98389.69;5099437;28;20589;-78
2021/06/11 05:55:36;;;;;;;17.80;14.70;;;;;;;14.41;100.00;98384.50;5100526;28;20224;-76
2021/06/11 05:58:04;;;;;;;15.97;14.50;;;;;;;14.60;100.00;98393.03;5101520;28;20189;-77
2021/06/11 06:00:31;;;;;;;14.37;12.87;;;;;;;14.49;100.00;98386.28;5105831;27;20215;-78
2021/06/11 06:02:58;;;;;;;16.23;14.73;;;;;;;14.55;100.00;98382.91;5106714;27;20212;-75
2021/06/11 06:05:26;;;;;;;17.03;13.83;;;;;;;14.68;100.00;98384.94;5106814;27;20226;-75
2021/06/11 06:07:55;;;;;;;16.03;12.93;;;;;;;14.56;100.00;98389.88;5105731;27;20201;-74
2021/06/11 06:10:23;;;;;;;24.20;15.40;;;;;;;14.65;100.00;98382.66;5102203;28;20210;-71
2021/06/11 06:12:50;;;;;;;15.83;14.17;;;;;;;14.63;100.00;98395.34;5098605;27;20231;-73
2021/06/11 06:15:18;;;;;;;14.63;13.27;;;;;;;14.80;100.00;98389.88;5102390;27;20576;-73
2021/06/11 06:17:45;;;;;;;15.77;14.50;;;;;;;14.89;100.00;98388.78;5102034;28;20206;-75
2021/06/11 06:20:14;;;;;;;14.30;13.20;;;;;;;15.02;100.00;98397.00;5103809;27;20205;-76
2021/06/11 06:22:42;;;;;;;14.87;13.57;;;;;;;15.21;100.00;98389.44;5102381;28;20202;-75
2021/06/11 06:25:12;;;;;;;23.87;15.33;;;;;;;15.30;100.00;98387.50;5101123;28;20225;-74
2021/06/11 06:27:41;;;;;;;15.90;14.43;;;;;;;15.26;100.00;98392.38;5102373;28;20204;-76
2021/06/11 06:30:10;;;;;;;16.80;15.30;;;;;;;15.04;100.00;98388.78;5099218;28;20202;-74
2021/06/11 06:32:37;;;;;;;17.63;14.90;;;;;;;15.07;100.00;98390.28;5100815;28;20197;-77
2021/06/11 06:35:06;;;;;;;17.50;15.83;;;;;;;15.24;100.00;98389.06;5107173;27;20197;-74
2021/06/11 06:37:34;;;;;;;16.47;15.07;;;;;;;15.00;100.00;98385.69;5102983;28;20228;-78
2021/06/11 06:40:02;;;;;;;17.83;16.00;;;;;;;15.24;100.00;98383.72;5102021;27;20277;-79
2021/06/11 06:42:31;;;;;;;18.20;15.80;;;;;;;15.06;100.00;98386.75;5102472;28;20692;-75
2021/06/11 06:44:59;;;;;;;16.87;14.90;;;;;;;15.44;100.00;98391.19;5106247;28;20221;-75
2021/06/11 06:47:26;;;;;;;15.47;14.27;;;;;;;15.36;100.00;98389.44;5103347;28;20212;-76
2021/06/11 06:49:54;;;;;;;15.90;14.70;;;;;;;15.46;100.00;98397.16;5103395;28;20277;-76
2021/06/11 06:52:21;;;;;;;16.90;15.10;;;;;;;15.61;100.00;98392.63;5103489;28;20232;-75
2021/06/11 06:54:48;;;;;;;17.77;15.50;;;;;;;15.60;100.00;98400.84;5102492;28;20242;-73
2021/06/11 06:57:16;;;;;;;17.23;15.47;;;;;;;15.86;100.00;98402.16;5098946;28;20222;-74
2021/06/11 06:59:45;;;;;;;16.17;14.60;;;;;;;16.19;100.00;98402.56;5099611;28;20221;-74
2021/06/11 07:02:12;;;;;;;16.63;15.20;;;;;;;15.77;100.00;98396.94;5102200;28;20673;-75
2021/06/11 07:04:40;;;;;;;16.23;14.83;;;;;;;16.15;100.00;98405.78;5097088;28;20249;-78
2021/06/11 07:07:11;;;;;;;16.30;15.10;;;;;;;16.12;100.00;98401.69;5100710;28;20225;-77
2021/06/11 07:09:39;;;;;;;15.53;14.33;;;;;;;16.15;100.00;98401.28;5098785;28;20206;-72
2021/06/11 07:12:07;;;;;;;16.60;15.20;;;;;;;16.00;100.00;98409.34;5101324;28;20648;-74
2021/06/11 07:14:36;;;;;;;16.73;15.33;;;;;;;16.18;100.00;98405.41;5101091;28;20551;-73
2021/06/11 07:17:05;;;;;;;16.90;15.50;;;;;;;16.31;100.00;98410.91;5104607;28;20229;-73
2021/06/11 07:19:33;;;;;;;16.57;15.17;;;;;;;16.35;100.00;98408.66;5103967;28;20206;-74
2021/06/11 07:22:02;;;;;;;17.47;16.17;;;;;;;16.58;100.00;98405.78;5099890;28;20626;-74
2021/06/11 07:24:31;;;;;;;15.90;14.60;;;;;;;16.82;100.00;98413.59;5098560;28;20206;-74
2021/06/11 07:26:59;;;;;;;17.23;15.83;;;;;;;16.58;100.00;98405.78;5099121;28;20230;-73
2021/06/11 07:29:26;;;;;;;18.63;17.03;;;;;;;16.73;100.00;98402.22;5101619;28;20246;-69
2021/06/11 07:31:54;;;;;;;17.73;16.33;;;;;;;16.82;100.00;98402.88;5102532;28;20532;-73
2021/06/11 07:34:23;;;;;;;18.30;16.70;;;;;;;17.05;100.00;98400.81;5102881;28;20266;-72
2021/06/11 07:36:50;;;;;;;17.53;16.23;;;;;;;16.88;100.00;98394.91;5102992;28;20225;-74
2021/06/11 07:39:18;;;;;;;16.40;15.10;;;;;;;17.38;100.00;98403.91;5104320;27;20208;-73
2021/06/11 07:41:46;;;;;;;18.23;16.73;;;;;;;17.09;100.00;98408.47;5103279;27;20587;-73
2021/06/11 07:44:14;;;;;;;17.57;16.10;;;;;;;17.47;100.00;98405.38;5102756;27;20215;-73
2021/06/11 07:46:41;;;;;;;17.43;16.13;;;;;;;17.78;100.00;98409.44;5101384;28;20229;-73
2021/06/11 07:49:09;;;;;;;18.27;16.77;;;;;;;17.28;100.00;98398.91;5103260;27;20205;-73
2021/06/11 07:51:38;;;;;;;18.40;16.97;;;;;;;17.23;100.00;98404.03;5101434;28;20210;-73
2021/06/11 07:54:06;;;;;;;20.43;17.17;;;;;;;16.93;100.00;98400.50;5105451;28;20205;-75
2021/06/11 07:56:34;;;;;;;19.00;17.50;;;;;;;17.35;100.00;98394.41;5102130;27;20229;-72
2021/06/11 07:59:01;;;;;;;18.77;17.27;;;;;;;17.45;100.00;98394.88;5099655;28;20205;-73
2021/06/11 08:01:28;;;;;;;17.50;16.13;;;;;;;17.71;100.00;98397.88;5110883;27;20435;-72
2021/06/11 08:03:56;;;;;;;19.90;18.40;;;;;;;18.27;99.64;98385.25;5104297;27;20219;-70
2021/06/11 08:06:23;;;;;;;18.43;17.03;;;;;;;18.16;100.00;98392.88;5103466;28;20878;-72
2021/06/11 08:08:52;;;;;;;19.67;18.27;;;;;;;18.00;100.00;98385.19;5103796;28;20217;-72
2021/06/11 08:11:20;;;;;;;17.63;16.40;;;;;;;18.04;100.00;98381.91;5104188;28;20204;-72
2021/06/11 08:13:47;;;;;;;19.00;17.60;;;;;;;17.84;100.00;98387.19;5104489;28;20208;-74
2021/06/11 08:16:15;;;;;;;19.13;17.73;;;;;;;18.06;100.00;98387.06;5104090;28;20213;-75
2021/06/11 08:18:42;;;;;;;19.27;17.77;;;;;;;18.33;99.07;98389.78;5104940;28;20304;-73
2021/06/11 08:21:10;;;;;;;18.07;16.67;;;;;;;18.26;100.00;98380.91;5105307;28;20213;-73
2021/06/11 08:23:38;;;;;;;19.30;17.67;;;;;;;18.28;100.00;98377.00;5101820;28;20228;-74
2021/06/11 08:26:06;;;;;;;18.17;16.87;;;;;;;18.36;100.00;98378.63;5104223;28;20221;-73
2021/06/11 08:28:34;;;;;;;18.60;17.17;;;;;;;18.12;100.00;98383.56;5102550;27;20198;-73
2021/06/11 08:31:01;;;;;;;17.30;16.00;;;;;;;18.51;98.78;98381.13;5103301;28;20299;-75
2021/06/11 08:33:29;;;;;;;18.70;17.20;;;;;;;18.52;99.74;98372.88;5108413;27;20201;-73
2021/06/11 08:35:56;;;;;;;19.10;17.53;;;;;;;18.55;97.50;98382.38;5104373;28;20225;-72
2021/06/11 08:38:24;;;;;;;19.53;18.00;;;;;;;18.46;96.33;98373.72;5103481;28;20711;-70
2021/06/11 08:40:51;;;;;;;18.50;17.10;;;;;;;18.58;97.96;98368.56;5103642;28;20373;-72
2021/06/11 08:43:21;;;;;;;17.03;15.70;;;;;;;18.74;91.70;98377.22;5104212;28;20202;-71
2021/06/11 08:45:50;;;;;;;17.33;15.93;;;;;;;18.86;90.62;98372.84;5105648;27;20221;-72
2021/06/11 08:48:18;;;;;;;16.27;14.97;;;;;;;18.76;90.44;98377.84;5106517;27;20213;-73
2021/06/11 08:50:45;;;;;;;17.57;16.27;;;;;;;19.07;87.12;98369.13;5104513;27;20672;-73
2021/06/11 08:53:12;;;;;;;16.37;15.17;;;;;;;19.19;90.86;98371.19;5103189;28;20205;-69
2021/06/11 08:55:40;;;;;;;16.30;15.13;;;;;;;19.49;85.27;98373.34;5097140;28;20229;-71
2021/06/11 08:58:07;;;;;;;16.77;15.37;;;;;;;19.47;85.96;98365.50;5104727;27;20200;-71
2021/06/11 09:00:36;;;;;;;14.97;13.87;;;;;;;19.58;88.00;98363.19;5100734;28;20590;-70
2021/06/11 09:03:08;;;;;;;15.37;14.27;;;;;;;19.78;86.94;98365.78;5101034;28;20223;-72
2021/06/11 09:05:36;;;;;;;15.03;13.77;;;;;;;19.87;87.24;98363.69;5102381;28;20221;-70
2021/06/11 09:08:28;;;;;;;15.00;13.90;;;;;;;20.08;86.47;98366.06;5100377;28;20209;-71
2021/06/11 09:11:10;;;;;;;16.40;15.07;;;;;;;20.01;83.90;98362.56;5085599;28;20606;-73
2021/06/11 09:13:40;;;;;;;13.87;12.73;;;;;;;20.26;84.06;98359.13;5100873;28;20209;-73
2021/06/11 09:16:12;;;;;;;15.10;14.00;;;;;;;20.35;80.48;98349.72;5103364;28;20222;-72
2021/06/11 09:18:44;;;;;;;13.90;12.90;;;;;;;20.31;83.10;98361.16;5102793;28;20226;-71
2021/06/11 09:21:30;;;;;;;13.80;12.70;;;;;;;20.33;80.51;98349.13;5101668;27;20220;-71
2021/06/11 09:24:23;;;;;;;13.47;12.57;;;;;;;20.53;79.15;98359.72;5102923;27;20563;-72
2021/06/11 09:27:06;;;;;;;13.00;12.07;;;;;;;20.61;79.84;98363.19;5102992;27;20489;-72
2021/06/11 09:29:34;;;;;;;12.20;11.30;;;;;;;20.66;72.27;98366.88;5101938;28;20308;-72
2021/06/11 09:32:17;;;;;;;9.40;8.80;;;;;;;20.63;72.94;98359.25;5100241;28;20292;-72
2021/06/11 09:34:46;;;;;;;10.00;9.30;;;;;;;20.94;67.84;98360.22;5099511;28;20233;-73
2021/06/11 09:37:15;;;;;;;9.63;9.03;;;;;;;20.93;66.56;98360.44;5102256;28;20221;-70
2021/06/11 09:39:45;;;;;;;9.77;9.17;;;;;;;20.95;67.18;98359.19;5102789;28;20201;-74
2021/06/11 09:42:14;;;;;;;9.90;9.30;;;;;;;20.98;67.31;98360.59;5097761;28;20208;-68
2021/06/11 09:44:56;;;;;;;8.53;8.03;;;;;;;21.16;63.25;98361.66;5103722;27;20204;-70
2021/06/11 09:47:35;;;;;;;8.83;8.00;;;;;;;21.18;61.79;98359.56;5097525;28;20218;-71
2021/06/11 09:50:06;;;;;;;8.50;7.90;;;;;;;21.34;64.13;98363.53;5102258;28;20219;-72
2021/06/11 09:52:36;;;;;;;7.10;6.60;;;;;;;21.52;59.76;98360.00;5099747;28;20209;-71
2021/06/11 09:55:05;;;;;;;8.17;7.37;;;;;;;21.44;65.22;98361.13;5097680;28;20225;-70
2021/06/11 09:57:36;;;;;;;8.13;7.63;;;;;;;21.51;63.79;98364.56;5100035;28;20202;-69
2021/06/11 10:00:04;;;;;;;9.90;9.10;;;;;;;21.44;59.04;98363.81;5100999;28;20206;-70
2021/06/11 10:02:35;;;;;;;9.70;8.93;;;;;;;21.56;59.98;98361.19;5101332;27;20220;-71
2021/06/11 10:05:03;;;;;;;10.00;9.33;;;;;;;21.90;54.88;98358.09;5101649;28;20202;-71
2021/06/11 10:07:33;;;;;;;9.27;8.67;;;;;;;21.76;58.68;98349.34;5102308;28;20225;-71
2021/06/11 10:10:02;;;;;;;8.47;7.87;;;;;;;21.86;60.44;98346.94;5105574;27;20209;-72
2021/06/11 10:12:29;;;;;;;8.43;7.83;;;;;;;22.06;60.65;98337.72;5101434;28;20202;-70
2021/06/11 10:14:57;;;;;;;10.37;7.20;;;;;;;21.95;60.67;98342.88;5101734;28;20835;-70
2021/06/11 10:17:24;;;;;;;8.50;7.90;;;;;;;22.23;58.16;98345.97;5102997;28;20636;-71
2021/06/11 10:19:53;;;;;;;8.87;8.27;;;;;;;22.21;54.88;98342.69;5102145;28;20213;-70
2021/06/11 10:22:20;;;;;;;8.33;7.83;;;;;;;22.21;53.56;98335.44;5102364;28;20208;-71
2021/06/11 10:24:48;;;;;;;9.40;8.80;;;;;;;22.26;54.08;98335.56;5106964;27;20209;-70
2021/06/11 10:27:16;;;;;;;9.80;9.17;;;;;;;22.26;52.97;98338.25;5101003;28;20711;-72
2021/06/11 10:29:43;;;;;;;8.47;7.77;;;;;;;22.49;55.78;98336.66;5100092;28;20577;-69
2021/06/11 10:32:10;;;;;;;8.97;8.30;;;;;;;22.36;55.50;98336.84;5105127;27;20609;-70
2021/06/11 10:34:52;;;;;;;9.13;8.43;;;;;;;22.58;52.44;98339.03;5102117;28;20210;-72
2021/06/11 10:37:34;;;;;;;9.53;8.93;;;;;;;22.56;52.35;98333.84;5101101;28;20232;-71
2021/06/11 10:40:15;;;;;;;9.13;8.53;;;;;;;23.06;51.13;98332.56;5097062;28;20290;-71
2021/06/11 10:42:42;;;;;;;8.43;7.83;;;;;;;23.32;50.75;98329.59;5099894;28;20729;-71
2021/06/11 10:45:12;;;;;;;8.87;8.10;;;;;;;23.56;51.01;98331.16;5100675;28;20197;-71
2021/06/11 10:47:53;;;;;;;9.63;8.93;;;;;;;24.63;45.62;98326.22;5100424;28;20601;-71
2021/06/11 10:50:33;;;;;;;8.80;8.20;;;;;;;25.12;44.98;98328.31;5099759;28;20201;-72
2021/06/11 10:53:12;;;;;;;7.77;7.20;;;;;;;25.09;45.54;98328.81;5105639;28;20203;-72
2021/06/11 10:55:50;;;;;;;9.20;8.57;;;;;;;25.88;42.08;98334.88;5098480;28;20236;-71
2021/06/11 10:58:26;;;;;;;7.57;7.07;;;;;;;26.05;43.04;98320.41;5099436;28;20669;-71
2021/06/11 11:00:54;;;;;;;8.77;8.17;;;;;;;26.21;41.18;98321.38;5103553;28;20219;-72
2021/06/11 11:03:32;;;;;;;7.73;7.13;;;;;;;27.17;40.57;98318.75;5100560;28;20233;-71
2021/06/11 11:06:34;;;;;;;8.07;7.47;;;;;;;27.10;40.30;98321.75;5105929;28;20247;-72
2021/06/11 11:09:05;;;;;;;7.27;6.77;;;;;;;26.66;41.23;98311.94;5103217;28;20701;-71
2021/06/11 11:11:41;;;;;;;5.93;5.63;;;;;;;27.30;39.56;98309.28;5105109;28;20724;-75
2021/06/11 11:14:39;;;;;;;6.90;6.50;;;;;;;26.71;40.66;98316.59;5107850;27;20196;-70
2021/06/11 11:17:07;;;;;;;6.80;6.40;;;;;;;26.58;40.54;98313.22;5101566;28;20583;-74
2021/06/11 11:19:51;;;;;;;8.00;7.47;;;;;;;26.86;40.10;98313.16;5105553;28;20232;-71
2021/06/11 11:22:34;;;;;;;6.27;5.87;;;;;;;27.32;39.19;98304.41;5103269;28;20295;-72
2021/06/11 11:25:06;;;;;;;6.80;6.20;;;;;;;26.68;38.42;98306.22;5104627;27;20722;-73